Time;durP1;ratioP1;P1;durP2;ratioP2;P2;SDS_P1;SDS_P2;PMS_P1;PMS_P2;Temp;Humidity;BMP_temperature;BMP_pressure;BME280_temperature;BME280_humidity;BME280_pressure;Samples;Min_cycle;Max_cycle;Signal;HPM_P1;HPM_P2
2023/07/25 00:00:58;;;;;;;3.80;3.40;;;17.20;99.90;;;;;;5069191;28;20453;-70
2023/07/25 00:03:24;;;;;;;3.60;3.07;;;17.10;99.90;;;;;;5077465;28;20664;-71
2023/07/25 00:05:49;;;;;;;2.93;2.73;;;16.70;99.90;;;;;;5079732;28;20208;-71
2023/07/25 00:08:15;;;;;;;3.23;2.93;;;17.20;99.90;;;;;;5072845;28;21210;-71
2023/07/25 00:10:40;;;;;;;4.13;3.53;;;17.20;99.90;;;;;;5058722;28;20186;-71
2023/07/25 00:13:06;;;;;;;4.70;2.93;;;17.20;99.90;;;;;;5057424;28;20177;-70
2023/07/25 00:15:32;;;;;;;3.83;3.53;;;17.10;99.90;;;;;;5073316;28;20227;-71
2023/07/25 00:17:57;;;;;;;3.40;3.10;;;17.10;99.90;;;;;;5077696;28;20193;-70
2023/07/25 00:20:23;;;;;;;3.40;3.10;;;17.10;99.90;;;;;;5079085;28;20216;-71
2023/07/25 00:22:49;;;;;;;3.27;3.03;;;17.10;99.90;;;;;;5055957;28;20214;-70
2023/07/25 00:25:15;;;;;;;3.80;3.20;;;17.10;99.90;;;;;;5078079;28;20220;-70
2023/07/25 00:27:41;;;;;;;4.28;3.45;;;17.00;99.90;;;;;;5056498;28;20244;-70
2023/07/25 00:30:07;;;;;;;3.60;3.03;;;17.10;99.90;;;;;;5082480;28;20277;-70
2023/07/25 00:32:33;;;;;;;3.10;2.80;;;17.10;99.90;;;;;;5076544;28;20180;-70
2023/07/25 00:34:59;;;;;;;3.42;3.13;;;17.10;99.90;;;;;;5077857;28;20207;-70
2023/07/25 00:37:28;;;;;;;7.77;2.70;;;17.00;99.90;;;;;;5072855;28;20181;-70
2023/07/25 00:39:53;;;;;;;3.47;3.13;;;17.00;99.90;;;;;;5075737;28;20176;-70
2023/07/25 00:42:19;;;;;;;3.10;2.70;;;17.10;99.90;;;;;;5082299;28;20317;-70
2023/07/25 00:44:44;;;;;;;3.50;3.20;;;17.20;99.90;;;;;;5070917;28;20698;-70
2023/07/25 00:47:10;;;;;;;3.17;2.87;;;17.80;99.90;;;;;;5080311;28;20188;-70
2023/07/25 00:49:36;;;;;;;3.00;2.80;;;17.30;99.90;;;;;;5077937;28;20183;-70
2023/07/25 00:52:02;;;;;;;3.50;3.20;;;17.30;99.90;;;;;;5074302;28;20186;-71
2023/07/25 00:54:27;;;;;;;4.33;3.30;;;17.20;99.90;;;;;;5075945;28;20220;-70
2023/07/25 00:56:53;;;;;;;3.60;3.30;;;17.20;99.90;;;;;;5055947;28;20191;-71
2023/07/25 00:59:18;;;;;;;6.03;3.47;;;17.20;99.90;;;;;;5068449;28;20571;-71
2023/07/25 01:01:44;;;;;;;3.63;3.30;;;17.10;99.90;;;;;;5069205;28;20181;-70
2023/07/25 01:04:10;;;;;;;5.03;4.13;;;17.10;99.90;;;;;;5069304;28;20211;-70
2023/07/25 01:06:37;;;;;;;4.20;3.40;;;17.50;99.90;;;;;;5073013;28;20435;-71
2023/07/25 01:09:02;;;;;;;3.13;2.80;;;17.00;99.90;;;;;;5074322;28;20185;-70
2023/07/25 01:11:28;;;;;;;3.37;2.63;;;17.10;99.90;;;;;;5052588;28;20185;-71
2023/07/25 01:13:54;;;;;;;3.80;3.40;;;17.10;99.90;;;;;;5057549;28;20254;-71
2023/07/25 01:16:28;;;;;;;3.37;3.07;;;17.10;99.90;;;;;;5060736;28;20262;-71
2023/07/25 01:18:54;;;;;;;2.97;2.75;;;17.00;99.90;;;;;;5055191;28;20440;-71
2023/07/25 01:21:21;;;;;;;5.20;3.83;;;17.00;99.90;;;;;;5049635;28;20207;-71
2023/07/25 01:23:48;;;;;;;4.10;3.17;;;17.00;99.90;;;;;;5074810;28;20307;-70
2023/07/25 01:26:16;;;;;;;2.95;2.75;;;17.10;99.90;;;;;;5076179;28;20291;-70
2023/07/25 01:28:41;;;;;;;2.97;2.72;;;16.80;99.90;;;;;;5071624;28;20205;-70
2023/07/25 01:31:07;;;;;;;3.33;2.97;;;16.90;99.90;;;;;;5073296;28;20180;-71
2023/07/25 01:33:33;;;;;;;3.10;2.87;;;16.90;99.90;;;;;;5075717;28;20707;-70
2023/07/25 01:36:00;;;;;;;3.10;2.80;;;16.90;99.90;;;;;;5053724;28;20200;-71
2023/07/25 01:38:25;;;;;;;4.60;4.15;;;17.10;99.90;;;;;;5076098;28;20203;-70
2023/07/25 01:40:51;;;;;;;3.37;3.07;;;17.10;99.90;;;;;;5073249;28;20538;-71
2023/07/25 01:43:17;;;;;;;3.37;2.83;;;17.00;99.90;;;;;;5072898;28;20196;-70
2023/07/25 01:45:42;;;;;;;4.40;3.60;;;16.90;99.90;;;;;;5056291;28;20295;-71
2023/07/25 01:48:08;;;;;;;2.70;2.50;;;17.10;99.90;;;;;;5076921;28;20263;-71
2023/07/25 01:50:33;;;;;;;3.50;3.23;;;16.90;99.90;;;;;;5077407;28;20181;-71
2023/07/25 01:52:59;;;;;;;3.10;2.80;;;17.20;99.90;;;;;;5070928;28;20188;-71
2023/07/25 01:55:25;;;;;;;3.03;2.73;;;17.10;99.90;;;;;;5075799;28;20692;-70
2023/07/25 01:57:50;;;;;;;4.80;3.80;;;16.90;99.90;;;;;;5070474;28;20275;-70
2023/07/25 02:00:16;;;;;;;2.87;2.63;;;16.80;99.90;;;;;;5053530;28;20187;-70
2023/07/25 02:02:41;;;;;;;2.87;2.67;;;17.20;99.90;;;;;;5079836;28;20177;-70
2023/07/25 02:05:07;;;;;;;3.77;3.47;;;16.90;99.90;;;;;;5055890;28;20219;-71
2023/07/25 02:07:33;;;;;;;3.27;2.97;;;16.90;99.90;;;;;;5075429;28;20177;-70
2023/07/25 02:09:58;;;;;;;3.10;2.80;;;16.70;99.90;;;;;;5054178;28;20542;-71
2023/07/25 02:12:25;;;;;;;4.27;2.97;;;16.80;99.90;;;;;;5071682;28;20257;-71
2023/07/25 02:14:51;;;;;;;3.53;2.90;;;16.80;99.90;;;;;;5064599;28;20330;-71
2023/07/25 02:17:19;;;;;;;3.00;2.80;;;17.00;99.90;;;;;;5058884;28;20803;-71
2023/07/25 02:19:45;;;;;;;2.63;2.40;;;16.90;99.90;;;;;;5062331;28;20196;-71
2023/07/25 02:22:10;;;;;;;4.40;2.80;;;16.80;99.90;;;;;;5067579;28;20189;-71
2023/07/25 02:24:36;;;;;;;3.70;3.40;;;16.70;99.90;;;;;;5068194;28;20494;-70
2023/07/25 02:27:02;;;;;;;2.90;2.70;;;16.80;99.90;;;;;;5070287;28;20185;-70
2023/07/25 02:29:27;;;;;;;3.20;2.90;;;16.70;99.90;;;;;;5074981;28;20176;-71
2023/07/25 02:31:53;;;;;;;3.90;3.60;;;16.70;99.90;;;;;;5074519;28;20489;-70
2023/07/25 02:34:18;;;;;;;4.87;3.10;;;16.70;99.90;;;;;;5058147;28;20571;-69
2023/07/25 02:36:44;;;;;;;3.53;3.17;;;16.90;99.90;;;;;;5071605;28;20219;-70
2023/07/25 02:39:10;;;;;;;4.23;3.30;;;16.80;99.90;;;;;;5069746;28;20185;-71
2023/07/25 02:41:35;;;;;;;3.03;2.83;;;16.90;99.90;;;;;;5069414;28;20653;-71
2023/07/25 02:44:03;;;;;;;3.60;3.23;;;16.60;99.90;;;;;;5075537;28;20316;-69
2023/07/25 02:46:28;;;;;;;3.80;3.40;;;16.70;99.90;;;;;;5051419;28;20217;-71
2023/07/25 02:48:54;;;;;;;3.70;3.33;;;16.90;99.90;;;;;;5075132;28;20211;-71
2023/07/25 02:51:20;;;;;;;3.97;3.03;;;16.90;99.90;;;;;;5055496;28;20180;-69
2023/07/25 02:53:45;;;;;;;3.40;3.10;;;16.80;99.90;;;;;;5073708;28;20180;-69
2023/07/25 02:56:11;;;;;;;3.00;2.73;;;16.80;99.90;;;;;;5069394;28;20652;-69
2023/07/25 02:58:37;;;;;;;3.53;3.23;;;16.90;99.90;;;;;;5056291;28;20188;-70
2023/07/25 03:01:02;;;;;;;3.20;2.90;;;16.90;99.90;;;;;;5052039;28;20189;-71
2023/07/25 03:03:28;;;;;;;3.47;2.80;;;16.80;99.90;;;;;;5071532;28;20210;-71
2023/07/25 03:05:54;;;;;;;3.37;3.10;;;16.70;99.90;;;;;;5069895;28;20204;-71
2023/07/25 03:08:19;;;;;;;4.00;3.17;;;17.00;99.90;;;;;;5070777;28;20180;-70
2023/07/25 03:10:45;;;;;;;4.40;3.37;;;16.80;99.90;;;;;;5054637;28;20203;-71
2023/07/25 03:13:10;;;;;;;4.90;3.53;;;16.80;99.90;;;;;;5068938;28;20650;-70
2023/07/25 03:15:36;;;;;;;6.53;3.43;;;16.90;99.90;;;;;;5078432;28;20578;-71
2023/07/25 03:18:02;;;;;;;3.57;3.27;;;17.20;99.90;;;;;;5050674;28;20573;-70
2023/07/25 03:20:27;;;;;;;2.80;2.60;;;17.00;99.90;;;;;;5056913;28;20184;-70
2023/07/25 03:22:53;;;;;;;3.20;2.90;;;17.10;99.90;;;;;;5067857;28;20178;-71
2023/07/25 03:25:19;;;;;;;4.00;3.30;;;17.10;99.90;;;;;;5052597;28;20204;-71
2023/07/25 03:27:44;;;;;;;3.27;2.97;;;17.10;99.90;;;;;;5047968;28;20218;-71
2023/07/25 03:30:10;;;;;;;3.43;3.13;;;17.20;99.90;;;;;;5053239;28;20197;-69
2023/07/25 03:32:36;;;;;;;3.87;3.57;;;17.30;99.90;;;;;;5056830;28;20176;-70
2023/07/25 03:35:01;;;;;;;3.20;2.83;;;17.30;99.90;;;;;;5075708;28;20204;-70
2023/07/25 03:37:27;;;;;;;4.70;3.20;;;17.90;99.90;;;;;;5069719;28;20277;-70
2023/07/25 03:39:53;;;;;;;3.00;2.70;;;17.60;99.90;;;;;;5052516;28;20233;-70
2023/07/25 03:42:19;;;;;;;3.67;2.95;;;17.80;99.90;;;;;;5072045;28;20562;-69
2023/07/25 03:44:44;;;;;;;4.07;3.10;;;17.70;99.90;;;;;;5072064;28;20212;-69
2023/07/25 03:47:10;;;;;;;3.90;3.60;;;17.80;99.90;;;;;;5073995;28;20568;-69
2023/07/25 03:49:36;;;;;;;3.30;3.10;;;17.90;99.90;;;;;;5071740;28;20234;-71
2023/07/25 03:52:01;;;;;;;3.87;3.47;;;18.10;99.90;;;;;;5067578;28;20186;-70
2023/07/25 03:54:27;;;;;;;3.43;3.13;;;18.00;99.90;;;;;;5072163;28;20266;-70
2023/07/25 03:56:52;;;;;;;5.07;3.50;;;18.00;99.90;;;;;;5057830;28;20188;-70
2023/07/25 03:59:18;;;;;;;4.00;3.10;;;18.00;99.90;;;;;;5070375;28;20184;-69
2023/07/25 04:01:44;;;;;;;3.10;2.80;;;18.50;99.90;;;;;;5072409;28;20181;-69
2023/07/25 04:04:10;;;;;;;3.93;3.53;;;18.20;99.90;;;;;;5072812;28;20943;-71
2023/07/25 04:06:37;;;;;;;3.27;2.97;;;18.10;99.90;;;;;;5056212;28;20526;-69
2023/07/25 04:09:02;;;;;;;3.55;2.78;;;18.20;99.90;;;;;;5058415;28;20184;-70
2023/07/25 04:11:28;;;;;;;3.43;2.73;;;18.20;99.90;;;;;;5058107;28;20176;-70
2023/07/25 04:13:54;;;;;;;3.33;3.00;;;18.30;99.90;;;;;;5071449;28;20198;-70
2023/07/25 04:16:19;;;;;;;4.60;3.53;;;18.10;99.90;;;;;;5073754;28;20176;-69
2023/07/25 04:18:45;;;;;;;3.77;3.47;;;18.10;99.90;;;;;;5072480;28;20192;-69
2023/07/25 04:21:10;;;;;;;3.03;2.83;;;18.10;99.90;;;;;;5047729;28;20658;-69
2023/07/25 04:23:36;;;;;;;3.37;3.07;;;17.90;99.90;;;;;;5049346;28;20217;-69
2023/07/25 04:26:02;;;;;;;3.30;2.97;;;17.90;99.90;;;;;;5064302;28;20294;-70
2023/07/25 04:28:27;;;;;;;6.50;3.13;;;17.90;99.90;;;;;;5053586;28;20269;-66
2023/07/25 04:30:53;;;;;;;3.60;3.30;;;18.00;99.90;;;;;;5068897;28;20211;-67
2023/07/25 04:33:19;;;;;;;4.00;3.60;;;18.00;99.90;;;;;;5075828;28;20177;-67
2023/07/25 04:35:45;;;;;;;5.57;3.53;;;18.00;99.90;;;;;;5063373;28;20208;-67
2023/07/25 04:38:12;;;;;;;3.55;3.25;;;18.00;99.90;;;;;;5077995;28;20189;-67
2023/07/25 04:40:38;;;;;;;3.40;3.10;;;18.00;99.90;;;;;;5076508;28;20221;-67
2023/07/25 04:43:03;;;;;;;4.03;3.33;;;18.10;99.90;;;;;;5068630;28;20659;-67
2023/07/25 04:45:29;;;;;;;3.80;3.40;;;17.60;99.90;;;;;;5072417;28;20474;-67
2023/07/25 04:47:54;;;;;;;7.03;3.63;;;18.00;99.90;;;;;;5070872;28;20230;-68
2023/07/25 04:50:20;;;;;;;3.97;3.57;;;18.10;99.90;;;;;;5071757;28;20189;-67
2023/07/25 04:52:46;;;;;;;4.53;4.13;;;18.00;99.90;;;;;;5077605;28;20184;-68
2023/07/25 04:55:11;;;;;;;4.57;4.17;;;18.40;99.90;;;;;;5077174;28;20201;-68
2023/07/25 04:57:37;;;;;;;4.17;3.77;;;18.00;99.90;;;;;;5073499;28;20683;-68
2023/07/25 05:00:04;;;;;;;6.77;3.80;;;18.00;99.90;;;;;;5069608;28;20187;-68
2023/07/25 05:02:30;;;;;;;4.35;3.95;;;18.10;99.90;;;;;;5069891;28;20181;-68
2023/07/25 05:04:55;;;;;;;4.00;3.60;;;18.20;99.90;;;;;;5071760;28;20984;-67
2023/07/25 05:07:21;;;;;;;4.23;3.80;;;18.20;99.90;;;;;;5044926;28;20177;-68
2023/07/25 05:09:46;;;;;;;4.13;3.73;;;18.30;99.90;;;;;;5075045;28;20181;-67
2023/07/25 05:12:13;;;;;;;4.13;3.57;;;18.20;99.90;;;;;;5049908;28;20418;-68
2023/07/25 05:14:39;;;;;;;3.58;3.28;;;18.20;99.90;;;;;;5069268;28;20196;-67
2023/07/25 05:17:05;;;;;;;3.10;2.80;;;18.20;99.90;;;;;;5072897;28;20237;-67
2023/07/25 05:19:30;;;;;;;3.20;2.90;;;18.30;99.90;;;;;;5077392;28;20458;-67
2023/07/25 05:21:56;;;;;;;3.87;3.27;;;18.30;99.90;;;;;;5069121;28;20297;-67
2023/07/25 05:24:23;;;;;;;3.73;3.00;;;18.40;99.90;;;;;;5077585;28;20196;-68
2023/07/25 05:26:49;;;;;;;3.85;3.50;;;18.40;99.90;;;;;;5074647;28;20546;-66
2023/07/25 05:29:15;;;;;;;3.20;2.90;;;18.80;99.90;;;;;;5070858;28;20196;-67
2023/07/25 05:31:40;;;;;;;3.40;2.90;;;18.50;99.90;;;;;;5054149;28;20211;-67
2023/07/25 05:34:06;;;;;;;4.40;3.50;;;18.60;99.90;;;;;;5057391;28;20313;-66
2023/07/25 05:36:31;;;;;;;3.60;3.30;;;18.60;99.90;;;;;;5072238;28;22161;-67
2023/07/25 05:38:57;;;;;;;3.40;3.10;;;18.60;99.90;;;;;;5071545;28;20173;-66
2023/07/25 05:41:23;;;;;;;4.13;3.67;;;18.70;99.90;;;;;;5067149;28;20204;-67
2023/07/25 05:43:48;;;;;;;4.30;3.90;;;18.70;99.90;;;;;;5073464;28;20241;-67
2023/07/25 05:46:14;;;;;;;4.00;3.37;;;18.70;99.90;;;;;;5073811;28;20682;-68
2023/07/25 05:48:40;;;;;;;8.57;4.07;;;18.80;99.90;;;;;;5058722;28;20184;-67
2023/07/25 05:51:05;;;;;;;5.03;3.70;;;18.80;99.90;;;;;;5067827;28;20272;-67
2023/07/25 05:53:32;;;;;;;7.80;5.10;;;18.90;99.90;;;;;;5076072;28;20184;-67
2023/07/25 05:55:57;;;;;;;6.65;4.82;;;18.90;99.90;;;;;;5070608;28;20267;-67
2023/07/25 05:58:23;;;;;;;11.93;6.07;;;18.90;99.90;;;;;;5069743;28;20271;-65
2023/07/25 06:00:49;;;;;;;7.37;5.00;;;18.80;99.90;;;;;;5073722;28;20605;-64
2023/07/25 06:03:15;;;;;;;11.77;5.87;;;18.80;99.90;;;;;;5067795;28;20237;-65
2023/07/25 06:05:41;;;;;;;6.47;4.70;;;18.60;99.90;;;;;;5074099;28;20537;-65
2023/07/25 06:08:08;;;;;;;10.57;7.93;;;18.50;99.90;;;;;;5073844;28;20177;-64
2023/07/25 06:10:34;;;;;;;7.03;5.88;;;18.30;99.90;;;;;;5069868;28;20184;-64
2023/07/25 06:13:00;;;;;;;6.20;5.28;;;18.00;99.90;;;;;;5069749;28;20181;-65
2023/07/25 06:15:28;;;;;;;5.27;4.77;;;18.40;99.90;;;;;;5050957;28;20597;-67
2023/07/25 06:17:54;;;;;;;6.80;4.95;;;18.00;99.90;;;;;;5073360;28;20452;-65
2023/07/25 06:20:19;;;;;;;5.50;5.00;;;17.80;99.90;;;;;;5073605;28;20189;-67
2023/07/25 06:22:45;;;;;;;5.40;4.70;;;17.80;99.90;;;;;;5069801;28;20446;-63
2023/07/25 06:25:14;;;;;;;6.80;5.40;;;17.80;99.90;;;;;;5072164;28;20543;-64
2023/07/25 06:27:39;;;;;;;7.70;5.85;;;17.90;99.90;;;;;;5070972;28;20189;-64
2023/07/25 06:30:06;;;;;;;6.57;5.00;;;17.90;99.90;;;;;;5076515;28;20369;-66
2023/07/25 06:32:31;;;;;;;5.78;4.70;;;17.90;99.90;;;;;;5058246;28;20184;-68
2023/07/25 06:34:57;;;;;;;5.07;4.57;;;18.10;99.90;;;;;;5040706;28;20197;-68
2023/07/25 06:37:22;;;;;;;6.40;5.20;;;18.10;99.90;;;;;;5061569;28;20188;-69
2023/07/25 06:39:48;;;;;;;6.13;5.03;;;18.10;99.90;;;;;;5072266;28;20271;-67
2023/07/25 06:42:13;;;;;;;6.20;5.60;;;18.20;99.90;;;;;;5070909;28;20212;-68
2023/07/25 06:44:39;;;;;;;7.93;5.43;;;18.50;99.90;;;;;;5069061;28;20208;-66
2023/07/25 06:47:05;;;;;;;5.93;5.33;;;18.20;99.90;;;;;;5052446;28;20182;-69
2023/07/25 06:49:31;;;;;;;6.20;5.60;;;18.30;99.90;;;;;;5061994;28;20191;-70
2023/07/25 06:51:56;;;;;;;5.20;4.50;;;18.30;99.90;;;;;;5074275;28;20457;-65
2023/07/25 06:54:22;;;;;;;6.87;5.23;;;18.30;99.90;;;;;;5058076;28;20214;-66
2023/07/25 06:56:48;;;;;;;5.10;4.70;;;18.20;99.90;;;;;;5074242;28;20267;-67
2023/07/25 06:59:14;;;;;;;5.40;4.87;;;18.30;99.90;;;;;;5067030;28;20196;-66
2023/07/25 07:01:39;;;;;;;5.53;4.07;;;18.40;99.90;;;;;;5066775;28;20440;-66
2023/07/25 07:04:05;;;;;;;6.93;4.77;;;18.30;99.90;;;;;;5067299;28;20211;-64
2023/07/25 07:06:31;;;;;;;5.53;3.93;;;18.30;99.90;;;;;;5070776;28;20208;-66
2023/07/25 07:08:57;;;;;;;7.97;4.90;;;18.30;99.90;;;;;;5074653;28;20645;-68
2023/07/25 07:11:22;;;;;;;5.20;4.07;;;18.60;99.90;;;;;;5066531;28;20208;-68
2023/07/25 07:13:48;;;;;;;4.90;4.50;;;18.30;99.90;;;;;;5050043;28;20298;-66
2023/07/25 07:16:14;;;;;;;7.20;4.50;;;18.20;99.90;;;;;;5069221;28;20804;-67
2023/07/25 07:18:39;;;;;;;7.13;4.97;;;18.30;99.90;;;;;;5062480;28;20192;-66
2023/07/25 07:21:05;;;;;;;5.60;4.60;;;18.30;99.90;;;;;;5072333;28;20453;-64
2023/07/25 07:23:31;;;;;;;5.23;4.53;;;18.40;99.90;;;;;;5068835;28;20646;-66
2023/07/25 07:25:57;;;;;;;5.63;5.13;;;18.00;99.90;;;;;;5071989;28;20569;-66
2023/07/25 07:28:22;;;;;;;4.80;4.03;;;18.20;99.90;;;;;;5059091;28;20216;-65
2023/07/25 07:30:49;;;;;;;6.33;4.27;;;18.10;99.90;;;;;;5070533;28;20176;-66
2023/07/25 07:33:16;;;;;;;5.13;4.22;;;18.10;99.90;;;;;;5069365;28;20241;-66
2023/07/25 07:35:42;;;;;;;3.80;3.40;;;18.20;99.90;;;;;;5065359;28;20295;-65
2023/07/25 07:38:08;;;;;;;5.43;3.40;;;18.20;99.90;;;;;;5063163;28;20618;-66
2023/07/25 07:40:35;;;;;;;5.83;3.70;;;18.30;99.90;;;;;;5065530;28;20193;-66
2023/07/25 07:43:01;;;;;;;3.80;3.28;;;18.40;99.90;;;;;;5063905;28;20452;-66
2023/07/25 07:45:27;;;;;;;3.57;3.27;;;18.50;99.90;;;;;;5062621;28;20711;-64
2023/07/25 07:47:53;;;;;;;4.55;3.58;;;18.80;99.90;;;;;;5069338;28;20448;-65
2023/07/25 07:50:19;;;;;;;3.97;3.67;;;19.60;99.90;;;;;;5065910;28;20525;-64
2023/07/25 07:52:45;;;;;;;5.60;4.70;;;21.00;99.90;;;;;;5068788;28;20657;-65
2023/07/25 07:55:12;;;;;;;3.47;3.10;;;23.20;99.90;;;;;;5061814;28;20562;-64
2023/07/25 07:57:46;;;;;;;3.40;3.10;;;25.30;99.90;;;;;;5068135;28;20446;-64
2023/07/25 08:00:13;;;;;;;3.53;3.23;;;25.30;99.90;;;;;;5046267;28;20450;-65
2023/07/25 08:02:43;;;;;;;3.50;3.20;;;24.90;99.90;;;;;;5073293;28;20500;-66
2023/07/25 08:05:10;;;;;;;3.80;3.07;;;24.40;99.90;;;;;;5074504;28;20935;-65
2023/07/25 08:07:36;;;;;;;2.70;2.50;;;24.40;99.90;;;;;;5066702;28;20795;-66
2023/07/25 08:10:02;;;;;;;3.30;2.63;;;25.20;99.90;;;;;;5073532;28;20845;-65
2023/07/25 08:12:27;;;;;;;4.53;2.50;;;24.90;99.90;;;;;;5064913;28;20458;-67
2023/07/25 08:14:53;;;;;;;2.97;2.70;;;24.90;99.70;;;;;;5064907;28;20210;-66
2023/07/25 08:17:18;;;;;;;4.93;2.40;;;24.60;99.90;;;;;;5067243;28;20238;-66
2023/07/25 08:19:44;;;;;;;2.90;2.60;;;24.20;99.90;;;;;;5064533;28;20623;-65
2023/07/25 08:22:10;;;;;;;2.37;2.17;;;23.90;99.90;;;;;;5065310;28;20191;-65
2023/07/25 08:24:37;;;;;;;7.60;5.97;;;23.90;99.90;;;;;;5070275;28;20296;-65
2023/07/25 08:27:02;;;;;;;3.30;2.40;;;23.90;99.90;;;;;;5054681;28;20523;-66
2023/07/25 08:29:28;;;;;;;3.60;2.10;;;23.50;99.90;;;;;;5050558;28;20484;-65
2023/07/25 08:31:54;;;;;;;2.43;1.87;;;23.10;99.90;;;;;;5076238;28;20445;-65
2023/07/25 08:34:20;;;;;;;2.70;2.27;;;22.90;99.90;;;;;;5072392;28;20765;-64
2023/07/25 08:36:46;;;;;;;3.33;2.83;;;22.50;99.90;;;;;;5071669;28;20216;-64
2023/07/25 08:39:11;;;;;;;4.00;2.40;;;22.30;99.90;;;;;;5073003;28;20454;-64
2023/07/25 08:41:45;;;;;;;4.00;2.83;;;22.20;99.90;;;;;;5072418;28;20841;-65
2023/07/25 08:44:12;;;;;;;3.33;2.80;;;22.30;99.90;;;;;;5067521;28;20612;-63
2023/07/25 08:46:41;;;;;;;3.20;2.27;;;22.40;99.90;;;;;;5071597;28;20946;-65
2023/07/25 08:49:13;;;;;;;2.70;2.50;;;22.50;99.90;;;;;;5051481;28;20497;-63
2023/07/25 08:51:42;;;;;;;4.63;2.30;;;22.80;99.90;;;;;;5070503;28;20462;-65
2023/07/25 08:54:32;;;;;;;3.13;2.83;;;23.00;99.90;;;;;;5068735;28;20501;-66
2023/07/25 08:56:58;;;;;;;2.77;2.50;;;23.10;99.90;;;;;;5069778;28;20443;-66
2023/07/25 08:59:25;;;;;;;3.30;3.00;;;23.40;99.90;;;;;;5068405;28;20824;-65
2023/07/25 09:01:52;;;;;;;2.50;2.20;;;23.30;99.90;;;;;;5068559;28;20454;-63
2023/07/25 09:04:19;;;;;;;4.53;3.43;;;23.10;99.90;;;;;;5069025;28;20468;-64
2023/07/25 09:06:45;;;;;;;3.03;2.80;;;23.10;99.90;;;;;;5069404;28;20564;-64
2023/07/25 09:09:12;;;;;;;2.57;2.37;;;22.90;99.90;;;;;;5074936;28;20949;-64
2023/07/25 09:11:38;;;;;;;2.93;2.60;;;22.70;99.90;;;;;;5068941;28;20892;-65
2023/07/25 09:14:03;;;;;;;3.90;2.30;;;22.20;99.90;;;;;;5070569;28;20465;-64
2023/07/25 09:16:33;;;;;;;2.27;2.07;;;21.80;99.90;;;;;;5069251;28;20996;-63
2023/07/25 09:18:58;;;;;;;2.90;2.33;;;21.80;99.90;;;;;;5072094;28;20442;-64
2023/07/25 09:21:24;;;;;;;2.30;2.10;;;21.80;99.90;;;;;;5067037;28;20198;-64
2023/07/25 09:23:52;;;;;;;2.13;1.90;;;21.80;99.90;;;;;;5051260;28;20228;-65
2023/07/25 09:26:21;;;;;;;1.90;1.80;;;21.60;99.90;;;;;;5066290;28;20303;-64
2023/07/25 09:28:52;;;;;;;2.17;2.07;;;21.70;99.90;;;;;;5071145;28;20184;-64
2023/07/25 09:31:19;;;;;;;2.80;2.30;;;22.40;99.90;;;;;;5068414;28;20447;-66
2023/07/25 09:33:49;;;;;;;2.37;1.70;;;23.20;99.90;;;;;;5069650;28;20447;-63
2023/07/25 09:36:15;;;;;;;3.17;1.73;;;23.40;99.90;;;;;;5071418;28;20533;-65
2023/07/25 09:38:54;;;;;;;1.80;1.37;;;24.10;99.90;;;;;;5064632;28;20537;-65
2023/07/25 09:41:21;;;;;;;3.70;1.73;;;24.80;99.90;;;;;;5072586;28;20541;-65
2023/07/25 09:43:49;;;;;;;2.17;1.50;;;25.10;98.00;;;;;;5076067;28;21032;-65
2023/07/25 09:46:15;;;;;;;3.90;2.63;;;25.50;96.70;;;;;;5072889;28;20475;-65
2023/07/25 09:48:46;;;;;;;2.07;1.80;;;26.80;94.90;;;;;;5050387;28;20453;-65
2023/07/25 09:51:12;;;;;;;4.70;2.10;;;28.10;92.70;;;;;;5063645;28;20217;-66
2023/07/25 09:53:42;;;;;;;4.07;2.30;;;28.70;91.20;;;;;;5066922;28;20451;-64
2023/07/25 09:56:09;;;;;;;4.73;1.97;;;28.60;90.40;;;;;;5071010;28;20450;-64
2023/07/25 09:58:35;;;;;;;2.07;1.87;;;29.10;86.40;;;;;;5067791;28;20449;-64
2023/07/25 10:01:05;;;;;;;2.60;1.67;;;29.90;84.00;;;;;;5066348;28;20534;-64
2023/07/25 10:03:30;;;;;;;1.83;1.70;;;30.60;80.40;;;;;;5071679;28;20434;-64
2023/07/25 10:05:57;;;;;;;2.17;1.93;;;31.10;78.90;;;;;;5068163;28;20527;-64
2023/07/25 10:08:25;;;;;;;2.70;1.40;;;30.00;78.80;;;;;;5064287;28;20195;-63
2023/07/25 10:10:54;;;;;;;3.07;2.13;;;29.80;78.80;;;;;;5046516;28;20444;-64
2023/07/25 10:13:20;;;;;;;3.33;1.70;;;29.20;79.40;;;;;;5071200;28;20444;-66
2023/07/25 10:15:46;;;;;;;2.13;1.53;;;28.90;81.00;;;;;;5069662;28;20466;-66
2023/07/25 10:18:26;;;;;;;2.17;1.97;;;28.10;81.10;;;;;;5069663;28;20277;-66
2023/07/25 10:20:53;;;;;;;2.00;1.80;;;27.50;85.90;;;;;;5067439;28;20440;-65
2023/07/25 10:23:19;;;;;;;1.60;1.50;;;27.00;86.20;;;;;;5066197;28;20444;-65
2023/07/25 10:25:45;;;;;;;2.37;1.73;;;26.60;88.00;;;;;;5069274;28;20471;-65
2023/07/25 10:28:12;;;;;;;1.50;1.40;;;26.30;89.90;;;;;;5062398;28;20446;-64
2023/07/25 10:30:45;;;;;;;1.83;1.73;;;26.20;89.20;;;;;;5071668;28;20888;-65
2023/07/25 10:33:15;;;;;;;1.50;1.40;;;26.10;90.30;;;;;;5072039;28;20949;-65
2023/07/25 10:35:52;;;;;;;2.33;1.70;;;26.10;90.70;;;;;;5068628;28;20485;-66
2023/07/25 10:38:34;;;;;;;1.70;1.60;;;26.00;91.40;;;;;;5067343;28;20530;-66
2023/07/25 10:41:20;;;;;;;1.93;1.73;;;25.80;92.40;;;;;;5066911;28;20450;-67
2023/07/25 10:43:49;;;;;;;2.00;1.60;;;25.80;90.90;;;;;;5068915;28;20461;-67
2023/07/25 10:46:22;;;;;;;1.50;1.30;;;25.20;91.50;;;;;;5070581;28;20495;-66
2023/07/25 10:48:48;;;;;;;1.63;1.47;;;24.80;91.80;;;;;;5070429;28;20448;-65
2023/07/25 10:51:15;;;;;;;2.13;1.90;;;24.50;92.80;;;;;;5067669;28;20940;-66
2023/07/25 10:54:01;;;;;;;2.47;2.27;;;24.20;95.40;;;;;;5074292;28;20644;-63
2023/07/25 10:56:27;;;;;;;1.87;1.70;;;23.90;94.80;;;;;;5064643;28;20879;-68
2023/07/25 10:59:05;;;;;;;1.87;1.70;;;23.40;94.70;;;;;;5061614;28;20456;-67
2023/07/25 11:01:51;;;;;;;1.87;1.70;;;23.20;95.50;;;;;;5064491;28;20450;-67
2023/07/25 11:04:22;;;;;;;1.67;1.57;;;22.80;96.10;;;;;;5068595;28;20833;-65
2023/07/25 11:06:49;;;;;;;1.90;1.80;;;22.60;97.20;;;;;;5067494;28;20821;-64
2023/07/25 11:09:15;;;;;;;1.93;1.53;;;22.40;98.00;;;;;;5049632;28;20438;-65
2023/07/25 11:11:59;;;;;;;1.87;1.73;;;22.30;98.50;;;;;;5065338;28;20449;-69
2023/07/25 11:14:25;;;;;;;3.37;1.70;;;22.10;99.90;;;;;;5063412;28;20793;-68
2023/07/25 11:16:54;;;;;;;3.10;1.80;;;22.90;98.70;;;;;;5044564;28;20446;-67
2023/07/25 11:19:25;;;;;;;1.67;1.50;;;24.80;97.00;;;;;;5064908;28;20494;-68
2023/07/25 11:21:51;;;;;;;2.60;2.03;;;27.00;93.20;;;;;;5070082;28;20805;-67
2023/07/25 11:24:19;;;;;;;1.63;1.53;;;28.50;90.10;;;;;;5070572;28;21113;-67
2023/07/25 11:26:45;;;;;;;2.20;1.67;;;29.30;85.10;;;;;;5049175;28;20678;-67
2023/07/25 11:29:12;;;;;;;2.70;1.80;;;30.00;81.10;;;;;;5074301;28;20781;-67
2023/07/25 11:31:45;;;;;;;1.53;1.43;;;29.80;78.80;;;;;;5050002;28;20649;-70
2023/07/25 11:34:18;;;;;;;1.83;1.40;;;30.20;75.60;;;;;;5074312;28;20483;-66
2023/07/25 11:36:44;;;;;;;1.50;1.30;;;30.20;76.00;;;;;;5049354;28;20971;-67
2023/07/25 11:39:11;;;;;;;1.20;1.10;;;30.50;70.00;;;;;;5048388;28;20919;-67
2023/07/25 11:41:38;;;;;;;1.37;1.20;;;30.40;69.00;;;;;;5064456;28;20288;-67
2023/07/25 11:44:11;;;;;;;1.40;1.30;;;29.80;68.10;;;;;;5064179;28;20534;-66
2023/07/25 11:46:43;;;;;;;1.40;1.10;;;28.60;71.50;;;;;;5065531;28;20520;-67
2023/07/25 11:49:10;;;;;;;1.87;1.47;;;27.90;76.10;;;;;;5072950;28;20450;-67
2023/07/25 11:51:37;;;;;;;1.60;1.50;;;27.20;77.30;;;;;;5070534;28;20482;-66
2023/07/25 11:54:04;;;;;;;2.47;1.63;;;26.50;78.20;;;;;;5067537;28;20529;-67
2023/07/25 11:56:32;;;;;;;1.20;1.10;;;25.90;81.60;;;;;;5067160;28;20446;-67
2023/07/25 11:58:59;;;;;;;1.10;1.00;;;25.50;81.80;;;;;;5065768;28;20861;-68
2023/07/25 12:01:33;;;;;;;1.50;1.30;;;25.30;84.70;;;;;;5071320;28;20450;-67
2023/07/25 12:04:02;;;;;;;3.20;1.27;;;25.40;83.70;;;;;;5070249;28;20468;-67
2023/07/25 12:06:30;;;;;;;1.50;1.30;;;25.40;82.40;;;;;;5071150;28;20633;-68
2023/07/25 12:08:56;;;;;;;1.53;1.43;;;25.50;80.30;;;;;;5072494;28;20436;-66
2023/07/25 12:11:22;;;;;;;1.53;1.33;;;25.40;82.70;;;;;;5070384;28;20858;-67
2023/07/25 12:13:57;;;;;;;1.30;1.00;;;24.50;79.80;;;;;;5074558;28;21402;-65
2023/07/25 12:16:30;;;;;;;2.17;1.97;;;23.60;82.40;;;;;;5065655;28;20449;-67
2023/07/25 12:19:21;;;;;;;1.73;1.20;;;23.30;86.30;;;;;;5073993;28;20957;-67
2023/07/25 12:21:46;;;;;;;1.83;1.70;;;23.10;86.80;;;;;;5052423;28;21008;-66
2023/07/25 12:24:14;;;;;;;1.73;1.10;;;22.30;89.40;;;;;;5070806;28;20487;-66
2023/07/25 12:26:48;;;;;;;1.00;0.90;;;22.00;90.90;;;;;;5057243;28;20216;-66
2023/07/25 12:29:21;;;;;;;3.97;1.70;;;21.70;92.40;;;;;;5076413;28;20442;-66
2023/07/25 12:31:47;;;;;;;1.98;1.88;;;21.50;95.60;;;;;;5077158;28;20198;-67
2023/07/25 12:34:12;;;;;;;2.08;1.38;;;21.10;98.20;;;;;;5074228;28;20259;-68
2023/07/25 12:36:38;;;;;;;2.67;1.90;;;21.00;99.90;;;;;;5070373;28;20193;-67
2023/07/25 12:39:04;;;;;;;3.33;1.30;;;20.70;99.90;;;;;;5074178;28;20197;-67
2023/07/25 12:41:30;;;;;;;2.67;1.30;;;20.80;99.90;;;;;;5051038;28;20547;-66
2023/07/25 12:43:55;;;;;;;1.60;1.50;;;20.80;99.90;;;;;;5052185;28;20214;-66